sensor_id;sensor_type;location;lat;lon;timestamp;pressure;altitude;pressure_sealevel;temperature;humidity
56392;BME280;42289;53.582;9.714;2022-12-08T00:01:56;100877.22;;;0.55;100.00
56392;BME280;42289;53.582;9.714;2022-12-08T00:04:25;100876.34;;;0.50;100.00
56392;BME280;42289;53.582;9.714;2022-12-08T00:06:52;100878.97;;;0.65;100.00
56392;BME280;42289;53.582;9.714;2022-12-08T00:09:39;100869.56;;;0.60;100.00
56392;BME280;42289;53.582;9.714;2022-12-08T00:12:07;100867.00;;;0.64;100.00
56392;BME280;42289;53.582;9.714;2022-12-08T00:14:40;100867.00;;;0.60;100.00
56392;BME280;42289;53.582;9.714;2022-12-08T00:17:08;100867.03;;;0.71;100.00
56392;BME280;42289;53.582;9.714;2022-12-08T00:19:38;100864.47;;;0.69;100.00
56392;BME280;42289;53.582;9.714;2022-12-08T00:22:05;100859.38;;;0.74;100.00
56392;BME280;42289;53.582;9.714;2022-12-08T00:24:33;100858.50;;;0.81;100.00
56392;BME280;42289;53.582;9.714;2022-12-08T00:27:02;100852.56;;;0.82;100.00
56392;BME280;42289;53.582;9.714;2022-12-08T00:29:28;100853.41;;;0.92;100.00
56392;BME280;42289;53.582;9.714;2022-12-08T00:31:55;100845.75;;;0.87;100.00
56392;BME280;42289;53.582;9.714;2022-12-08T00:34:21;100840.66;;;0.93;100.00
56392;BME280;42289;53.582;9.714;2022-12-08T00:36:48;100842.34;;;0.93;100.00
56392;BME280;42289;53.582;9.714;2022-12-08T00:39:17;100835.53;;;0.96;100.00
56392;BME280;42289;53.582;9.714;2022-12-08T00:41:43;100832.97;;;1.03;100.00
56392;BME280;42289;53.582;9.714;2022-12-08T00:44:31;100820.16;;;0.99;100.00
56392;BME280;42289;53.582;9.714;2022-12-08T00:46:57;100817.59;;;0.99;100.00
56392;BME280;42289;53.582;9.714;2022-12-08T00:49:24;100817.59;;;1.12;100.00
56392;BME280;42289;53.582;9.714;2022-12-08T00:51:50;100814.22;;;1.11;100.00
56392;BME280;42289;53.582;9.714;2022-12-08T00:54:18;100809.97;;;1.13;100.00
56392;BME280;42289;53.582;9.714;2022-12-08T00:56:44;100815.06;;;1.21;100.00
56392;BME280;42289;53.582;9.714;2022-12-08T00:59:11;100803.09;;;1.28;100.00
56392;BME280;42289;53.582;9.714;2022-12-08T01:01:39;100806.53;;;1.30;100.00
56392;BME280;42289;53.582;9.714;2022-12-08T01:04:07;100803.09;;;1.26;100.00
56392;BME280;42289;53.582;9.714;2022-12-08T01:06:37;100798.84;;;1.24;100.00
56392;BME280;42289;53.582;9.714;2022-12-08T01:09:05;100788.59;;;1.33;100.00
56392;BME280;42289;53.582;9.714;2022-12-08T01:11:32;100786.00;;;1.36;100.00
56392;BME280;42289;53.582;9.714;2022-12-08T01:13:59;100784.31;;;1.32;100.00
56392;BME280;42289;53.582;9.714;2022-12-08T01:16:27;100792.88;;;1.32;100.00
56392;BME280;42289;53.582;9.714;2022-12-08T01:18:56;100789.47;;;1.35;100.00
56392;BME280;42289;53.582;9.714;2022-12-08T01:21:23;100786.88;;;1.47;100.00
56392;BME280;42289;53.582;9.714;2022-12-08T01:23:50;100793.69;;;1.50;100.00
56392;BME280;42289;53.582;9.714;2022-12-08T01:26:18;100783.44;;;1.45;100.00
56392;BME280;42289;53.582;9.714;2022-12-08T01:28:45;100784.31;;;1.41;100.00
56392;BME280;42289;53.582;9.714;2022-12-08T01:31:14;100780.88;;;1.45;100.00
56392;BME280;42289;53.582;9.714;2022-12-08T01:33:41;100786.88;;;1.43;100.00
56392;BME280;42289;53.582;9.714;2022-12-08T01:36:18;100778.31;;;1.56;100.00
56392;BME280;42289;53.582;9.714;2022-12-08T01:38:44;100773.22;;;1.34;100.00
56392;BME280;42289;53.582;9.714;2022-12-08T01:41:13;100769.78;;;1.31;100.00
56392;BME280;42289;53.582;9.714;2022-12-08T01:43:53;100761.28;;;1.18;100.00
56392;BME280;42289;53.582;9.714;2022-12-08T01:46:20;100761.28;;;1.37;100.00
56392;BME280;42289;53.582;9.714;2022-12-08T01:48:46;100753.59;;;1.03;100.00
56392;BME280;42289;53.582;9.714;2022-12-08T01:51:14;100741.69;;;0.95;100.00
56392;BME280;42289;53.582;9.714;2022-12-08T01:53:41;100750.22;;;1.00;100.00
56392;BME280;42289;53.582;9.714;2022-12-08T01:56:10;100745.94;;;0.95;100.00
56392;BME280;42289;53.582;9.714;2022-12-08T01:58:40;100752.78;;;0.90;100.00
56392;BME280;42289;53.582;9.714;2022-12-08T02:01:09;100746.78;;;0.95;100.00
56392;BME280;42289;53.582;9.714;2022-12-08T02:03:41;100753.63;;;0.95;100.00
56392;BME280;42289;53.582;9.714;2022-12-08T02:06:08;100759.59;;;0.95;100.00
56392;BME280;42289;53.582;9.714;2022-12-08T02:08:39;100753.63;;;0.99;100.00
56392;BME280;42289;53.582;9.714;2022-12-08T02:11:08;100754.47;;;1.05;100.00
56392;BME280;42289;53.582;9.714;2022-12-08T02:13:35;100757.03;;;1.05;100.00
56392;BME280;42289;53.582;9.714;2022-12-08T02:16:10;100757.88;;;1.13;100.00
56392;BME280;42289;53.582;9.714;2022-12-08T02:18:52;100745.09;;;1.11;100.00
56392;BME280;42289;53.582;9.714;2022-12-08T02:21:28;100745.91;;;1.12;100.00
56392;BME280;42289;53.582;9.714;2022-12-08T02:24:08;100744.22;;;1.20;100.00
56392;BME280;42289;53.582;9.714;2022-12-08T02:27:07;100739.94;;;1.14;100.00
56392;BME280;42289;53.582;9.714;2022-12-08T02:29:57;100739.94;;;1.22;100.00
56392;BME280;42289;53.582;9.714;2022-12-08T02:32:40;100746.78;;;1.22;100.00
56392;BME280;42289;53.582;9.714;2022-12-08T02:35:14;100745.91;;;1.32;100.00
56392;BME280;42289;53.582;9.714;2022-12-08T02:37:48;100748.50;;;1.26;100.00
56392;BME280;42289;53.582;9.714;2022-12-08T02:40:27;100743.34;;;1.30;100.00
56392;BME280;42289;53.582;9.714;2022-12-08T02:42:57;100738.22;;;1.37;100.00
56392;BME280;42289;53.582;9.714;2022-12-08T02:45:30;100742.47;;;1.38;100.00
56392;BME280;42289;53.582;9.714;2022-12-08T02:47:58;100737.38;;;1.39;100.00
56392;BME280;42289;53.582;9.714;2022-12-08T02:50:27;100739.84;;;1.68;100.00
56392;BME280;42289;53.582;9.714;2022-12-08T02:52:53;100727.06;;;1.48;100.00
56392;BME280;42289;53.582;9.714;2022-12-08T02:55:24;100722.78;;;1.61;100.00
56392;BME280;42289;53.582;9.714;2022-12-08T03:00:50;100703.22;;;1.42;100.00
56392;BME280;42289;53.582;9.714;2022-12-08T03:03:27;100698.09;;;1.42;100.00
56392;BME280;42289;53.582;9.714;2022-12-08T03:06:03;100698.81;;;1.78;100.00
56392;BME280;42289;53.582;9.714;2022-12-08T03:08:41;100675.84;;;1.56;100.00
56392;BME280;42289;53.582;9.714;2022-12-08T03:11:15;100668.13;;;1.62;100.00
56392;BME280;42289;53.582;9.714;2022-12-08T03:13:47;100662.19;;;1.54;100.00
56392;BME280;42289;53.582;9.714;2022-12-08T03:16:17;100656.25;;;1.46;100.00
56392;BME280;42289;53.582;9.714;2022-12-08T03:18:50;100653.69;;;1.46;100.00
56392;BME280;42289;53.582;9.714;2022-12-08T03:21:19;100646.88;;;1.43;100.00
56392;BME280;42289;53.582;9.714;2022-12-08T03:23:49;100641.69;;;1.49;100.00
56392;BME280;42289;53.582;9.714;2022-12-08T03:26:21;100637.47;;;1.42;100.00
56392;BME280;42289;53.582;9.714;2022-12-08T03:28:50;100636.63;;;1.39;100.00
56392;BME280;42289;53.582;9.714;2022-12-08T03:31:17;100644.28;;;1.46;100.00
56392;BME280;42289;53.582;9.714;2022-12-08T03:33:48;100636.66;;;1.34;100.00
56392;BME280;42289;53.582;9.714;2022-12-08T03:36:18;100652.03;;;1.32;100.00
56392;BME280;42289;53.582;9.714;2022-12-08T03:38:49;100646.91;;;1.32;100.00
56392;BME280;42289;53.582;9.714;2022-12-08T03:41:17;100655.44;;;1.30;100.00
56392;BME280;42289;53.582;9.714;2022-12-08T03:43:44;100661.41;;;1.30;100.00
56392;BME280;42289;53.582;9.714;2022-12-08T03:46:10;100663.97;;;1.30;100.00
56392;BME280;42289;53.582;9.714;2022-12-08T03:48:37;100668.22;;;1.33;100.00
56392;BME280;42289;53.582;9.714;2022-12-08T03:51:03;100670.75;;;1.38;100.00
56392;BME280;42289;53.582;9.714;2022-12-08T03:53:31;100670.78;;;1.39;100.00
56392;BME280;42289;53.582;9.714;2022-12-08T03:55:57;100658.81;;;1.40;100.00
56392;BME280;42289;53.582;9.714;2022-12-08T03:58:23;100652.84;;;1.42;100.00
56392;BME280;42289;53.582;9.714;2022-12-08T04:00:50;100657.97;;;1.38;100.00
56392;BME280;42289;53.582;9.714;2022-12-08T04:03:16;100648.50;;;1.55;100.00
56392;BME280;42289;53.582;9.714;2022-12-08T04:05:43;100639.13;;;1.54;100.00
56392;BME280;42289;53.582;9.714;2022-12-08T04:08:09;100629.78;;;1.38;100.00
56392;BME280;42289;53.582;9.714;2022-12-08T04:10:37;100629.78;;;1.41;100.00
56392;BME280;42289;53.582;9.714;2022-12-08T04:13:04;100625.50;;;1.44;100.00
56392;BME280;42289;53.582;9.714;2022-12-08T04:15:30;100615.25;;;1.46;100.00
56392;BME280;42289;53.582;9.714;2022-12-08T04:17:56;100616.13;;;1.42;100.00
56392;BME280;42289;53.582;9.714;2022-12-08T04:20:23;100600.66;;;1.66;100.00
56392;BME280;42289;53.582;9.714;2022-12-08T04:22:49;100592.97;;;1.60;100.00
56392;BME280;42289;53.582;9.714;2022-12-08T04:25:15;100585.38;;;1.45;100.00
56392;BME280;42289;53.582;9.714;2022-12-08T04:27:43;100579.44;;;1.32;100.00
56392;BME280;42289;53.582;9.714;2022-12-08T04:30:10;100587.06;;;1.50;100.00
56392;BME280;42289;53.582;9.714;2022-12-08T04:32:36;100580.31;;;1.32;100.00
56392;BME280;42289;53.582;9.714;2022-12-08T04:35:03;100581.06;;;1.55;100.00
56392;BME280;42289;53.582;9.714;2022-12-08T04:37:30;100570.94;;;1.24;100.00
56392;BME280;42289;53.582;9.714;2022-12-08T04:39:56;100570.03;;;1.43;100.00
56392;BME280;42289;53.582;9.714;2022-12-08T04:42:23;100565.81;;;1.31;100.00
56392;BME280;42289;53.582;9.714;2022-12-08T04:44:50;100564.97;;;1.25;100.00
56392;BME280;42289;53.582;9.714;2022-12-08T04:47:17;100569.25;;;1.23;100.00
56392;BME280;42289;53.582;9.714;2022-12-08T04:49:45;100576.06;;;1.25;100.00
56392;BME280;42289;53.582;9.714;2022-12-08T04:52:11;100576.06;;;1.28;100.00
56392;BME280;42289;53.582;9.714;2022-12-08T04:54:37;100573.50;;;1.31;100.00
56392;BME280;42289;53.582;9.714;2022-12-08T04:57:04;100562.44;;;1.23;100.00
56392;BME280;42289;53.582;9.714;2022-12-08T04:59:30;100564.13;;;1.23;100.00
56392;BME280;42289;53.582;9.714;2022-12-08T05:01:58;100560.75;;;1.14;100.00
56392;BME280;42289;53.582;9.714;2022-12-08T05:04:24;100561.59;;;1.18;100.00
56392;BME280;42289;53.582;9.714;2022-12-08T05:06:51;100571.81;;;1.20;100.00
56392;BME280;42289;53.582;9.714;2022-12-08T05:09:17;100566.72;;;1.12;100.00
56392;BME280;42289;53.582;9.714;2022-12-08T05:11:44;100562.50;;;0.97;100.00
56392;BME280;42289;53.582;9.714;2022-12-08T05:14:11;100573.56;;;1.10;100.00
56392;BME280;42289;53.582;9.714;2022-12-08T05:16:39;100563.34;;;1.04;100.00
56392;BME280;42289;53.582;9.714;2022-12-08T05:19:07;100577.00;;;1.06;100.00
56392;BME280;42289;53.582;9.714;2022-12-08T05:21:34;100569.34;;;0.96;100.00
56392;BME280;42289;53.582;9.714;2022-12-08T05:24:00;100560.81;;;0.97;100.00
56392;BME280;42289;53.582;9.714;2022-12-08T05:26:27;100561.69;;;0.95;100.00
56392;BME280;42289;53.582;9.714;2022-12-08T05:28:53;100559.94;;;1.03;100.00
56392;BME280;42289;53.582;9.714;2022-12-08T05:31:19;100564.16;;;1.10;100.00
56392;BME280;42289;53.582;9.714;2022-12-08T05:33:48;100562.47;;;1.08;100.00
56392;BME280;42289;53.582;9.714;2022-12-08T05:36:15;100559.91;;;1.08;100.00
56392;BME280;42289;53.582;9.714;2022-12-08T05:38:42;100565.03;;;1.11;100.00
56392;BME280;42289;53.582;9.714;2022-12-08T05:41:12;100565.94;;;0.96;100.00
56392;BME280;42289;53.582;9.714;2022-12-08T05:43:39;100573.63;;;0.99;100.00
56392;BME280;42289;53.582;9.714;2022-12-08T05:46:06;100577.00;;;1.07;100.00
56392;BME280;42289;53.582;9.714;2022-12-08T05:48:33;100570.16;;;1.09;100.00
56392;BME280;42289;53.582;9.714;2022-12-08T05:51:00;100573.63;;;0.96;100.00
56392;BME280;42289;53.582;9.714;2022-12-08T05:53:28;100584.66;;;1.15;100.00
56392;BME280;42289;53.582;9.714;2022-12-08T05:55:55;100583.81;;;1.10;100.00
56392;BME280;42289;53.582;9.714;2022-12-08T05:58:22;100586.41;;;1.00;100.00
56392;BME280;42289;53.582;9.714;2022-12-08T06:00:49;100587.25;;;1.06;100.00
56392;BME280;42289;53.582;9.714;2022-12-08T06:03:17;100583.81;;;1.08;100.00
56392;BME280;42289;53.582;9.714;2022-12-08T06:05:45;100588.91;;;1.13;100.00
56392;BME280;42289;53.582;9.714;2022-12-08T06:08:12;100592.34;;;1.09;100.00
56392;BME280;42289;53.582;9.714;2022-12-08T06:10:40;100589.78;;;1.01;100.00
56392;BME280;42289;53.582;9.714;2022-12-08T06:13:07;100594.06;;;1.02;100.00
56392;BME280;42289;53.582;9.714;2022-12-08T06:15:34;100587.28;;;0.95;100.00
56392;BME280;42289;53.582;9.714;2022-12-08T06:18:01;100592.41;;;0.93;100.00
56392;BME280;42289;53.582;9.714;2022-12-08T06:20:29;100601.78;;;0.93;100.00
56392;BME280;42289;53.582;9.714;2022-12-08T06:22:55;100611.16;;;0.91;100.00
56392;BME280;42289;53.582;9.714;2022-12-08T06:25:23;100611.16;;;0.95;100.00
56392;BME280;42289;53.582;9.714;2022-12-08T06:27:51;100618.81;;;0.97;100.00
56392;BME280;42289;53.582;9.714;2022-12-08T06:30:17;100624.81;;;0.99;100.00
56392;BME280;42289;53.582;9.714;2022-12-08T06:32:44;100618.84;;;0.92;100.00
56392;BME280;42289;53.582;9.714;2022-12-08T06:35:10;100632.47;;;0.91;100.00
56392;BME280;42289;53.582;9.714;2022-12-08T06:37:36;100630.75;;;0.99;100.00
56392;BME280;42289;53.582;9.714;2022-12-08T06:40:03;100634.19;;;0.92;100.00
56392;BME280;42289;53.582;9.714;2022-12-08T06:42:30;100640.16;;;0.99;100.00
56392;BME280;42289;53.582;9.714;2022-12-08T06:45:14;100632.50;;;0.96;100.00
56392;BME280;42289;53.582;9.714;2022-12-08T06:47:42;100637.63;;;0.96;100.00
56392;BME280;42289;53.582;9.714;2022-12-08T06:50:10;100658.06;;;0.99;100.00
56392;BME280;42289;53.582;9.714;2022-12-08T06:52:37;100654.66;;;1.03;100.00
56392;BME280;42289;53.582;9.714;2022-12-08T06:55:05;100664.88;;;0.98;100.00
56392;BME280;42289;53.582;9.714;2022-12-08T06:57:32;100658.91;;;0.99;100.00
56392;BME280;42289;53.582;9.714;2022-12-08T06:59:58;100673.44;;;0.93;100.00
56392;BME280;42289;53.582;9.714;2022-12-08T07:02:26;100667.44;;;0.95;100.00
56392;BME280;42289;53.582;9.714;2022-12-08T07:04:52;100675.97;;;1.00;100.00
56392;BME280;42289;53.582;9.714;2022-12-08T07:07:19;100681.97;;;0.96;100.00
56392;BME280;42289;53.582;9.714;2022-12-08T07:09:45;100682.81;;;1.02;100.00
56392;BME280;42289;53.582;9.714;2022-12-08T07:12:11;100685.38;;;1.03;100.00
56392;BME280;42289;53.582;9.714;2022-12-08T07:14:38;100689.59;;;1.18;100.00
56392;BME280;42289;53.582;9.714;2022-12-08T07:17:04;100691.31;;;1.16;100.00
56392;BME280;42289;53.582;9.714;2022-12-08T07:19:32;100693.91;;;1.08;100.00
56392;BME280;42289;53.582;9.714;2022-12-08T07:21:58;100693.03;;;1.08;100.00
56392;BME280;42289;53.582;9.714;2022-12-08T07:24:25;100700.72;;;1.08;100.00
56392;BME280;42289;53.582;9.714;2022-12-08T07:26:51;100707.56;;;1.13;100.00
56392;BME280;42289;53.582;9.714;2022-12-08T07:29:18;100710.94;;;1.08;100.00
56392;BME280;42289;53.582;9.714;2022-12-08T07:31:44;100706.69;;;1.08;100.00
56392;BME280;42289;53.582;9.714;2022-12-08T07:34:11;100706.69;;;1.04;100.00
56392;BME280;42289;53.582;9.714;2022-12-08T07:36:39;100713.53;;;1.03;100.00
56392;BME280;42289;53.582;9.714;2022-12-08T07:39:05;100710.94;;;1.09;100.00
56392;BME280;42289;53.582;9.714;2022-12-08T07:41:32;100707.56;;;1.06;100.00
56392;BME280;42289;53.582;9.714;2022-12-08T07:43:58;100705.84;;;1.03;100.00
56392;BME280;42289;53.582;9.714;2022-12-08T07:46:25;100715.22;;;1.06;100.00
56392;BME280;42289;53.582;9.714;2022-12-08T07:48:52;100713.53;;;1.05;100.00
56392;BME280;42289;53.582;9.714;2022-12-08T07:51:18;100716.09;;;1.11;100.00
56392;BME280;42289;53.582;9.714;2022-12-08T07:53:48;100722.03;;;1.04;100.00
56392;BME280;42289;53.582;9.714;2022-12-08T07:56:14;100719.50;;;0.96;100.00
56392;BME280;42289;53.582;9.714;2022-12-08T07:58:41;100717.78;;;1.03;100.00
56392;BME280;42289;53.582;9.714;2022-12-08T08:01:20;100711.81;;;0.83;100.00
56392;BME280;42289;53.582;9.714;2022-12-08T08:03:47;100717.81;;;0.86;100.00
56392;BME280;42289;53.582;9.714;2022-12-08T08:06:14;100716.94;;;0.88;100.00
56392;BME280;42289;53.582;9.714;2022-12-08T08:08:40;100711.81;;;0.74;100.00
56392;BME280;42289;53.582;9.714;2022-12-08T08:11:08;100710.97;;;0.77;100.00
56392;BME280;42289;53.582;9.714;2022-12-08T08:13:35;100715.22;;;0.81;100.00
56392;BME280;42289;53.582;9.714;2022-12-08T08:16:03;100710.97;;;0.77;100.00
56392;BME280;42289;53.582;9.714;2022-12-08T08:18:29;100709.28;;;0.65;100.00
56392;BME280;42289;53.582;9.714;2022-12-08T08:20:56;100709.25;;;0.57;100.00
56392;BME280;42289;53.582;9.714;2022-12-08T08:23:22;100710.94;;;0.55;100.00
56392;BME280;42289;53.582;9.714;2022-12-08T08:25:49;100705.81;;;0.44;100.00
56392;BME280;42289;53.582;9.714;2022-12-08T08:28:17;100708.38;;;0.40;100.00
56392;BME280;42289;53.582;9.714;2022-12-08T08:30:44;100706.66;;;0.29;100.00
56392;BME280;42289;53.582;9.714;2022-12-08T08:33:10;100707.53;;;0.28;100.00
56392;BME280;42289;53.582;9.714;2022-12-08T08:35:37;100705.81;;;0.26;100.00
56392;BME280;42289;53.582;9.714;2022-12-08T08:38:03;100707.50;;;0.25;100.00
56392;BME280;42289;53.582;9.714;2022-12-08T08:40:30;100706.63;;;0.20;100.00
56392;BME280;42289;53.582;9.714;2022-12-08T08:42:56;100716.03;;;0.16;100.00
56392;BME280;42289;53.582;9.714;2022-12-08T08:45:24;100716.00;;;0.12;100.00
56392;BME280;42289;53.582;9.714;2022-12-08T08:47:50;100726.22;;;0.10;100.00
56392;BME280;42289;53.582;9.714;2022-12-08T08:50:17;100710.03;;;0.13;100.00
56392;BME280;42289;53.582;9.714;2022-12-08T08:52:43;100717.69;;;0.16;100.00
56392;BME280;42289;53.582;9.714;2022-12-08T08:55:10;100724.53;;;0.14;100.00
56392;BME280;42289;53.582;9.714;2022-12-08T08:57:36;100724.47;;;-0.08;100.00
56392;BME280;42289;53.582;9.714;2022-12-08T09:00:03;100731.28;;;-0.05;100.00
56392;BME280;42289;53.582;9.714;2022-12-08T09:02:31;100730.44;;;-0.03;100.00
56392;BME280;42289;53.582;9.714;2022-12-08T09:04:58;100730.44;;;-0.01;100.00
56392;BME280;42289;53.582;9.714;2022-12-08T09:07:24;100738.16;;;0.11;100.00
56392;BME280;42289;53.582;9.714;2022-12-08T09:09:51;100727.91;;;0.07;100.00
56392;BME280;42289;53.582;9.714;2022-12-08T09:12:17;100733.03;;;0.11;100.00
56392;BME280;42289;53.582;9.714;2022-12-08T09:14:43;100735.63;;;0.21;100.00
56392;BME280;42289;53.582;9.714;2022-12-08T09:17:10;100739.88;;;0.19;100.00
56392;BME280;42289;53.582;9.714;2022-12-08T09:19:38;100751.00;;;0.31;100.00
56392;BME280;42289;53.582;9.714;2022-12-08T09:22:04;100760.34;;;0.22;100.00
56392;BME280;42289;53.582;9.714;2022-12-08T09:24:31;100757.78;;;0.22;100.00
56392;BME280;42289;53.582;9.714;2022-12-08T09:26:58;100768.00;;;0.26;100.00
56392;BME280;42289;53.582;9.714;2022-12-08T09:29:24;100769.72;;;0.30;100.00
56392;BME280;42289;53.582;9.714;2022-12-08T09:31:50;100774.84;;;0.33;100.00
56392;BME280;42289;53.582;9.714;2022-12-08T09:34:18;100778.28;;;0.37;100.00
56392;BME280;42289;53.582;9.714;2022-12-08T09:36:46;100780.84;;;0.34;100.00
56392;BME280;42289;53.582;9.714;2022-12-08T09:39:12;100773.16;;;0.39;100.00
56392;BME280;42289;53.582;9.714;2022-12-08T09:41:43;100778.28;;;0.39;100.00
56392;BME280;42289;53.582;9.714;2022-12-08T09:44:25;100774.03;;;0.45;100.00
56392;BME280;42289;53.582;9.714;2022-12-08T09:47:04;100773.19;;;0.45;100.00
56392;BME280;42289;53.582;9.714;2022-12-08T09:49:38;100776.59;;;0.48;100.00
56392;BME280;42289;53.582;9.714;2022-12-08T09:52:12;100775.75;;;0.57;100.00
56392;BME280;42289;53.582;9.714;2022-12-08T09:54:45;100776.66;;;0.72;100.00
56392;BME280;42289;53.582;9.714;2022-12-08T09:57:15;100774.94;;;0.68;100.00
56392;BME280;42289;53.582;9.714;2022-12-08T09:59:47;100766.41;;;0.64;100.00
56392;BME280;42289;53.582;9.714;2022-12-08T10:02:20;100766.41;;;0.73;100.00
56392;BME280;42289;53.582;9.714;2022-12-08T10:04:47;100754.47;;;0.72;100.00
56392;BME280;42289;53.582;9.714;2022-12-08T10:07:16;100749.34;;;0.75;100.00
56392;BME280;42289;53.582;9.714;2022-12-08T10:09:48;100739.13;;;0.83;100.00
56392;BME280;42289;53.582;9.714;2022-12-08T10:12:21;100732.28;;;0.71;100.00
56392;BME280;42289;53.582;9.714;2022-12-08T10:14:56;100722.94;;;0.82;100.00
56392;BME280;42289;53.582;9.714;2022-12-08T10:17:30;100725.47;;;0.93;100.00
56392;BME280;42289;53.582;9.714;2022-12-08T10:20:03;100716.94;;;0.79;100.00
56392;BME280;42289;53.582;9.714;2022-12-08T10:22:33;100725.47;;;0.92;100.00
56392;BME280;42289;53.582;9.714;2022-12-08T10:25:04;100721.22;;;0.89;100.00
56392;BME280;42289;53.582;9.714;2022-12-08T10:27:33;100716.09;;;0.83;100.00
56392;BME280;42289;53.582;9.714;2022-12-08T10:30:01;100710.13;;;0.75;100.00
56392;BME280;42289;53.582;9.714;2022-12-08T10:32:32;100708.41;;;0.86;100.00
56392;BME280;42289;53.582;9.714;2022-12-08T10:35:03;100707.56;;;0.82;100.00
56392;BME280;42289;53.582;9.714;2022-12-08T10:37:30;100707.56;;;0.96;100.00
56392;BME280;42289;53.582;9.714;2022-12-08T10:40:05;100696.44;;;1.04;100.00
56392;BME280;42289;53.582;9.714;2022-12-08T10:42:37;100692.16;;;1.10;100.00
56392;BME280;42289;53.582;9.714;2022-12-08T10:45:20;100685.28;;;1.39;100.00
56392;BME280;42289;53.582;9.714;2022-12-08T10:47:56;100672.44;;;1.48;100.00
56392;BME280;42289;53.582;9.714;2022-12-08T10:50:28;100651.94;;;1.54;100.00
56392;BME280;42289;53.582;9.714;2022-12-08T10:52:57;100653.63;;;1.61;100.00
56392;BME280;42289;53.582;9.714;2022-12-08T10:55:26;100651.06;;;1.55;100.00
56392;BME280;42289;53.582;9.714;2022-12-08T10:57:53;100635.69;;;1.58;100.00
56392;BME280;42289;53.582;9.714;2022-12-08T11:00:23;100622.94;;;1.43;100.00
56392;BME280;42289;53.582;9.714;2022-12-08T11:02:56;100607.63;;;1.35;100.00
56392;BME280;42289;53.582;9.714;2022-12-08T11:05:26;100601.69;;;1.28;100.00
56392;BME280;42289;53.582;9.714;2022-12-08T11:07:54;100605.09;;;1.24;100.00
56392;BME280;42289;53.582;9.714;2022-12-08T11:10:31;100605.06;;;1.29;100.00
56392;BME280;42289;53.582;9.714;2022-12-08T11:13:00;100616.22;;;1.14;100.00
56392;BME280;42289;53.582;9.714;2022-12-08T11:15:32;100619.63;;;1.14;100.00
56392;BME280;42289;53.582;9.714;2022-12-08T11:18:06;100618.72;;;1.34;100.00
56392;BME280;42289;53.582;9.714;2022-12-08T11:20:38;100612.78;;;1.21;100.00
56392;BME280;42289;53.582;9.714;2022-12-08T11:23:18;100630.66;;;1.40;100.00
56392;BME280;42289;53.582;9.714;2022-12-08T11:25:47;100630.63;;;1.43;100.00
56392;BME280;42289;53.582;9.714;2022-12-08T11:28:15;100628.94;;;1.37;100.00
56392;BME280;42289;53.582;9.714;2022-12-08T11:30:46;100621.25;;;1.43;100.00
56392;BME280;42289;53.582;9.714;2022-12-08T11:33:17;100630.63;;;1.49;100.00
56392;BME280;42289;53.582;9.714;2022-12-08T11:35:48;100634.03;;;1.46;100.00
56392;BME280;42289;53.582;9.714;2022-12-08T11:38:18;100626.34;;;1.48;100.00
56392;BME280;42289;53.582;9.714;2022-12-08T11:40:49;100628.94;;;1.45;100.00
56392;BME280;42289;53.582;9.714;2022-12-08T11:43:20;100628.06;;;1.47;100.00
56392;BME280;42289;53.582;9.714;2022-12-08T11:45:53;100617.81;;;1.41;100.00
56392;BME280;42289;53.582;9.714;2022-12-08T11:48:26;100609.28;;;1.50;100.00
56392;BME280;42289;53.582;9.714;2022-12-08T11:50:58;100610.16;;;1.46;100.00
56392;BME280;42289;53.582;9.714;2022-12-08T11:53:28;100604.16;;;1.44;100.00
56392;BME280;42289;53.582;9.714;2022-12-08T11:56:02;100598.16;;;1.48;100.00
56392;BME280;42289;53.582;9.714;2022-12-08T11:58:36;100596.44;;;1.47;100.00
56392;BME280;42289;53.582;9.714;2022-12-08T12:01:04;100596.38;;;1.59;100.00
56392;BME280;42289;53.582;9.714;2022-12-08T12:03:40;100587.09;;;1.47;100.00
56392;BME280;42289;53.582;9.714;2022-12-08T12:06:20;100597.28;;;1.52;100.00
56392;BME280;42289;53.582;9.714;2022-12-08T12:08:54;100599.78;;;1.63;100.00
56392;BME280;42289;53.582;9.714;2022-12-08T12:11:34;100593.84;;;1.62;100.00
56392;BME280;42289;53.582;9.714;2022-12-08T12:14:34;100579.41;;;1.46;100.00
56392;BME280;42289;53.582;9.714;2022-12-08T12:17:09;100587.94;;;1.45;100.00
56392;BME280;42289;53.582;9.714;2022-12-08T12:19:47;100587.91;;;1.54;100.00
56392;BME280;42289;53.582;9.714;2022-12-08T12:22:15;100597.28;;;1.57;100.00
56392;BME280;42289;53.582;9.714;2022-12-08T12:24:46;100603.22;;;1.63;100.00
56392;BME280;42289;53.582;9.714;2022-12-08T12:27:22;100593.91;;;1.44;100.00
56392;BME280;42289;53.582;9.714;2022-12-08T12:29:54;100582.06;;;1.18;100.00
56392;BME280;42289;53.582;9.714;2022-12-08T12:32:23;100587.19;;;1.18;100.00
56392;BME280;42289;53.582;9.714;2022-12-08T12:34:52;100592.25;;;1.35;100.00
56392;BME280;42289;53.582;9.714;2022-12-08T12:37:22;100597.31;;;1.43;100.00
56392;BME280;42289;53.582;9.714;2022-12-08T12:39:54;100603.28;;;1.48;100.00
56392;BME280;42289;53.582;9.714;2022-12-08T12:42:38;100610.09;;;1.52;100.00
56392;BME280;42289;53.582;9.714;2022-12-08T12:45:11;100631.44;;;1.51;100.00
56392;BME280;42289;53.582;9.714;2022-12-08T12:47:49;100643.38;;;1.55;100.00
56392;BME280;42289;53.582;9.714;2022-12-08T12:50:40;100651.91;;;1.63;100.00
56392;BME280;42289;53.582;9.714;2022-12-08T12:53:49;100665.53;;;1.68;100.00
56392;BME280;42289;53.582;9.714;2022-12-08T12:56:46;100669.78;;;1.73;100.00
56392;BME280;42289;53.582;9.714;2022-12-08T12:59:41;100660.41;;;1.65;100.00
56392;BME280;42289;53.582;9.714;2022-12-08T13:02:25;100665.50;;;1.81;100.00
56392;BME280;42289;53.582;9.714;2022-12-08T13:04:57;100664.69;;;1.70;100.00
56392;BME280;42289;53.582;9.714;2022-12-08T13:07:26;100665.53;;;1.67;100.00